Time;durP1;ratioP1;P1;durP2;ratioP2;P2;SDS_P1;SDS_P2;PMS_P1;PMS_P2;Temp;Humidity;BMP_temperature;BMP_pressure;BME280_temperature;BME280_humidity;BME280_pressure;Samples;Min_cycle;Max_cycle;Signal;HPM_P1;HPM_P2
2023/04/27 00:00:45;;;;;;;6.47;1.42;;;6.50;99.90;;;;;;5007182;28;20457;-74
2023/04/27 00:03:11;;;;;;;2.30;1.42;;;6.40;99.90;;;;;;5002623;28;20114;-74
2023/04/27 00:05:38;;;;;;;3.60;1.90;;;6.50;99.90;;;;;;5008276;28;20625;-74
2023/04/27 00:08:07;;;;;;;4.63;1.40;;;6.50;99.90;;;;;;5000526;28;20049;-74
2023/04/27 00:10:33;;;;;;;2.65;1.50;;;6.50;99.90;;;;;;5009075;28;20034;-73
2023/04/27 00:13:00;;;;;;;10.18;1.83;;;6.50;99.90;;;;;;4999624;28;20030;-74
2023/04/27 00:15:27;;;;;;;1.70;1.15;;;6.50;99.90;;;;;;5008204;28;20525;-74
2023/04/27 00:17:53;;;;;;;1.40;0.80;;;6.50;99.90;;;;;;4999493;28;20038;-74
2023/04/27 00:20:19;;;;;;;3.70;2.03;;;6.40;99.90;;;;;;5008684;28;20069;-73
2023/04/27 00:22:45;;;;;;;2.65;1.20;;;6.40;99.90;;;;;;4999492;28;20033;-74
2023/04/27 00:25:11;;;;;;;4.30;1.30;;;6.30;99.90;;;;;;5000796;28;20023;-73
2023/04/27 00:27:37;;;;;;;2.70;1.48;;;6.30;99.90;;;;;;4993081;28;20025;-73
2023/04/27 00:30:04;;;;;;;2.67;1.30;;;6.20;99.90;;;;;;5009421;28;20018;-73
2023/04/27 00:32:30;;;;;;;3.50;1.25;;;6.10;99.90;;;;;;4979669;28;20561;-73
2023/04/27 00:34:55;;;;;;;1.90;1.25;;;6.00;99.90;;;;;;5004554;28;20041;-73
2023/04/27 00:37:21;;;;;;;4.18;1.52;;;5.90;99.90;;;;;;5000279;28;20030;-74
2023/04/27 00:39:47;;;;;;;3.55;1.73;;;5.90;99.90;;;;;;5006061;28;20405;-74
2023/04/27 00:42:16;;;;;;;2.22;1.13;;;5.90;99.90;;;;;;5002811;28;20052;-74
2023/04/27 00:44:42;;;;;;;6.00;1.17;;;5.80;99.90;;;;;;5006031;28;20159;-74
2023/04/27 00:47:09;;;;;;;7.80;1.55;;;5.90;99.90;;;;;;5002990;28;20112;-74
2023/04/27 00:49:35;;;;;;;6.05;1.45;;;5.80;99.90;;;;;;5004217;28;20096;-74
2023/04/27 00:52:02;;;;;;;2.35;1.30;;;5.80;99.90;;;;;;5004262;28;20029;-74
2023/04/27 00:54:28;;;;;;;1.80;1.55;;;5.90;99.90;;;;;;5003894;28;20034;-74
2023/04/27 00:56:54;;;;;;;3.80;1.73;;;5.90;99.90;;;;;;5004431;28;20034;-74
2023/04/27 00:59:20;;;;;;;4.80;1.45;;;5.90;99.90;;;;;;5003532;28;20029;-74
2023/04/27 01:01:47;;;;;;;2.20;1.23;;;6.00;99.90;;;;;;5004191;28;20081;-74
2023/04/27 01:04:13;;;;;;;9.40;1.45;;;6.00;99.90;;;;;;4980756;28;20161;-75
2023/04/27 01:06:39;;;;;;;5.78;1.33;;;6.00;99.90;;;;;;4981694;28;20102;-74
2023/04/27 01:09:05;;;;;;;2.50;1.55;;;6.00;99.90;;;;;;4991842;28;20049;-74
2023/04/27 01:11:32;;;;;;;2.60;1.20;;;5.90;99.90;;;;;;4994616;28;20037;-74
2023/04/27 01:14:06;;;;;;;3.45;1.52;;;5.80;99.90;;;;;;5001777;28;20125;-75
2023/04/27 01:16:36;;;;;;;5.85;2.10;;;5.70;99.90;;;;;;4975991;28;20025;-74
2023/04/27 01:19:02;;;;;;;4.05;1.95;;;5.70;99.90;;;;;;5001746;28;20021;-74
2023/04/27 01:21:28;;;;;;;2.33;1.42;;;5.60;99.90;;;;;;5002787;28;20048;-74
2023/04/27 01:23:54;;;;;;;2.47;1.48;;;5.60;99.90;;;;;;4994555;28;20035;-74
2023/04/27 01:26:20;;;;;;;5.57;1.45;;;5.60;99.90;;;;;;4993995;28;20124;-74
2023/04/27 01:28:46;;;;;;;2.58;1.40;;;5.60;99.90;;;;;;5003071;28;20052;-75
2023/04/27 01:31:12;;;;;;;3.13;1.35;;;5.70;99.90;;;;;;5002880;28;20027;-74
2023/04/27 01:33:39;;;;;;;3.05;1.55;;;5.70;99.90;;;;;;5001092;28;20375;-74
2023/04/27 01:36:06;;;;;;;2.17;1.15;;;5.80;99.90;;;;;;5000359;28;20034;-74
2023/04/27 01:38:33;;;;;;;5.75;1.95;;;5.80;99.90;;;;;;5003007;28;20033;-74
2023/04/27 01:41:00;;;;;;;4.25;1.63;;;5.80;99.90;;;;;;5003408;28;20056;-74
2023/04/27 01:43:30;;;;;;;3.78;1.90;;;5.80;99.90;;;;;;5001245;28;20611;-74
2023/04/27 01:46:14;;;;;;;7.95;2.50;;;5.80;99.90;;;;;;4998592;28;20053;-74
2023/04/27 01:48:40;;;;;;;3.88;1.52;;;5.70;99.90;;;;;;4992425;28;20038;-74
2023/04/27 01:51:06;;;;;;;2.30;1.65;;;5.60;99.90;;;;;;4972323;28;20483;-74
2023/04/27 01:53:33;;;;;;;3.08;1.65;;;5.60;99.90;;;;;;5002688;28;20136;-74
2023/04/27 01:55:59;;;;;;;2.03;1.05;;;5.60;99.90;;;;;;4996520;28;20031;-74
2023/04/27 01:58:26;;;;;;;3.15;1.45;;;5.70;99.90;;;;;;5002822;28;20401;-74
2023/04/27 02:00:51;;;;;;;1.83;1.15;;;5.80;99.90;;;;;;5000084;28;20154;-74
2023/04/27 02:03:17;;;;;;;1.63;1.00;;;5.80;99.90;;;;;;5000713;28;20109;-75
2023/04/27 02:05:43;;;;;;;6.82;2.25;;;5.80;99.90;;;;;;5005470;28;20105;-74
2023/04/27 02:08:09;;;;;;;9.75;2.05;;;5.80;99.90;;;;;;4999446;28;20122;-74
2023/04/27 02:10:35;;;;;;;2.13;0.95;;;5.70;99.90;;;;;;5006926;28;20041;-74
2023/04/27 02:13:01;;;;;;;6.38;1.42;;;5.70;99.90;;;;;;4999031;28;20061;-74
2023/04/27 02:15:27;;;;;;;3.78;2.30;;;5.70;99.90;;;;;;5000313;28;20093;-74
2023/04/27 02:17:53;;;;;;;3.35;1.40;;;5.70;99.90;;;;;;4999048;28;20042;-74
2023/04/27 02:20:19;;;;;;;3.05;1.42;;;5.70;99.90;;;;;;5008206;28;20033;-74
2023/04/27 02:22:45;;;;;;;2.33;1.20;;;5.70;99.90;;;;;;4998681;28;20030;-74
2023/04/27 02:25:11;;;;;;;1.77;1.13;;;5.70;99.90;;;;;;5008129;28;20060;-74
2023/04/27 03:22:49;;;;;;;1.92;1.08;;;6.30;99.90;;;;;;4996730;28;20129;-74
2023/04/27 03:25:15;;;;;;;4.85;1.80;;;6.30;99.90;;;;;;5010779;28;20112;-74
2023/04/27 03:27:42;;;;;;;1.67;1.33;;;6.30;99.90;;;;;;4995961;28;20122;-74
2023/04/27 03:30:09;;;;;;;3.30;1.95;;;6.40;99.90;;;;;;5011006;28;20033;-74
2023/04/27 03:32:34;;;;;;;4.05;2.15;;;6.30;99.90;;;;;;5001324;28;20034;-74
2023/04/27 03:35:01;;;;;;;3.67;2.22;;;6.20;99.90;;;;;;5008882;28;20571;-74
2023/04/27 03:37:26;;;;;;;2.33;1.60;;;6.10;99.90;;;;;;4997723;28;20053;-74
2023/04/27 03:39:52;;;;;;;4.50;1.70;;;6.10;99.90;;;;;;4996269;28;20038;-74
2023/04/27 03:42:18;;;;;;;9.82;1.83;;;6.10;99.90;;;;;;5000841;28;20038;-74
2023/04/27 03:44:43;;;;;;;6.53;1.95;;;6.10;99.90;;;;;;5007302;28;20037;-74
2023/04/27 03:47:09;;;;;;;5.60;1.90;;;6.10;99.90;;;;;;4999482;23;20042;-71
2023/04/27 03:49:35;;;;;;;4.18;1.80;;;6.20;99.90;;;;;;4958955;28;20042;-70
2023/04/27 03:52:02;;;;;;;2.47;1.30;;;6.20;99.90;;;;;;4987561;28;20625;-71
2023/04/27 03:54:30;;;;;;;8.32;1.65;;;6.10;99.90;;;;;;4999923;28;20038;-71
2023/04/27 03:56:56;;;;;;;5.38;2.30;;;6.10;99.90;;;;;;5003170;28;20060;-70
2023/04/27 03:59:21;;;;;;;3.20;1.90;;;6.10;99.90;;;;;;4984825;28;20030;-71
2023/04/27 04:01:47;;;;;;;9.10;2.63;;;6.10;99.90;;;;;;4991577;28;20039;-71
2023/04/27 04:04:13;;;;;;;5.97;2.90;;;6.20;99.90;;;;;;4984059;28;20038;-71
2023/04/27 04:06:39;;;;;;;6.93;2.00;;;6.30;99.90;;;;;;4991451;28;20038;-71
2023/04/27 04:09:05;;;;;;;4.85;1.90;;;6.30;99.90;;;;;;4984751;28;20030;-71
2023/04/27 04:11:31;;;;;;;5.63;1.95;;;6.20;99.90;;;;;;4988674;28;20081;-71
2023/04/27 04:13:56;;;;;;;2.58;1.52;;;6.20;99.90;;;;;;4984153;28;20038;-71
2023/04/27 04:16:22;;;;;;;4.95;2.58;;;6.20;99.90;;;;;;4981365;28;20490;-71
2023/04/27 04:18:48;;;;;;;4.82;2.28;;;6.30;99.90;;;;;;4984566;28;20026;-71
2023/04/27 04:21:14;;;;;;;10.80;1.75;;;6.30;99.90;;;;;;4991122;28;20367;-71
2023/04/27 04:23:39;;;;;;;4.95;2.03;;;6.40;99.90;;;;;;4984091;28;20089;-71
2023/04/27 04:26:07;;;;;;;6.38;2.05;;;6.40;99.90;;;;;;4990627;28;20033;-71
2023/04/27 04:28:33;;;;;;;5.03;2.53;;;6.30;99.90;;;;;;4983235;28;20025;-71
2023/04/27 04:31:00;;;;;;;7.00;2.80;;;6.40;99.90;;;;;;4966046;28;20023;-71
2023/04/27 04:33:26;;;;;;;4.28;2.00;;;6.40;99.90;;;;;;4982689;28;20072;-71
2023/04/27 04:35:52;;;;;;;4.60;2.83;;;6.40;99.90;;;;;;4988712;28;20054;-71
2023/04/27 04:38:18;;;;;;;5.68;2.90;;;6.20;99.90;;;;;;4983270;28;21404;-71
2023/04/27 04:40:44;;;;;;;4.35;1.55;;;6.20;99.90;;;;;;4989347;28;20034;-71
2023/04/27 04:43:11;;;;;;;5.95;2.03;;;6.20;99.90;;;;;;4983629;28;20398;-70
2023/04/27 04:45:36;;;;;;;5.80;1.63;;;6.30;99.90;;;;;;4990105;28;20029;-71
2023/04/27 04:48:03;;;;;;;3.22;1.88;;;6.30;99.90;;;;;;4988314;28;20038;-71
2023/04/27 04:50:29;;;;;;;4.68;2.50;;;6.30;99.90;;;;;;4972099;28;20114;-71
2023/04/27 04:52:55;;;;;;;4.25;1.95;;;6.40;99.90;;;;;;4983249;28;20034;-71
2023/04/27 04:55:21;;;;;;;5.90;2.30;;;6.40;99.90;;;;;;4991323;28;20031;-71
2023/04/27 04:57:46;;;;;;;4.03;2.10;;;6.50;99.90;;;;;;4983304;28;20046;-73
2023/04/27 05:00:13;;;;;;;4.55;2.67;;;6.60;99.90;;;;;;4969650;28;20045;-72
2023/04/27 05:02:42;;;;;;;9.90;2.78;;;6.60;99.90;;;;;;4970925;28;20074;-73
2023/04/27 05:05:08;;;;;;;4.43;1.92;;;6.60;99.90;;;;;;4972244;28;20031;-59
2023/04/27 05:07:34;;;;;;;4.32;2.03;;;6.80;99.90;;;;;;4973420;28;20027;-69
2023/04/27 05:10:00;;;;;;;6.85;2.28;;;6.80;99.90;;;;;;4986764;28;20037;-69
2023/04/27 05:12:26;;;;;;;6.95;2.30;;;6.80;99.90;;;;;;4982291;28;20089;-69
2023/04/27 05:14:52;;;;;;;14.90;1.70;;;6.90;99.90;;;;;;4982547;28;20038;-69
2023/04/27 05:17:18;;;;;;;7.53;2.63;;;7.00;99.90;;;;;;4979908;28;20084;-69
2023/04/27 05:19:44;;;;;;;2.42;1.33;;;7.00;99.90;;;;;;4982071;28;20109;-69
2023/04/27 05:22:10;;;;;;;8.27;1.88;;;7.10;99.90;;;;;;4979092;28;20180;-69
2023/04/27 05:24:35;;;;;;;2.72;1.63;;;7.20;99.90;;;;;;4989480;28;20041;-69
2023/04/27 05:27:02;;;;;;;2.72;1.70;;;7.30;99.90;;;;;;4982894;28;20030;-69
2023/04/27 05:29:28;;;;;;;10.38;2.63;;;7.30;99.90;;;;;;4980963;28;20113;-68
2023/04/27 05:31:54;;;;;;;8.40;2.45;;;7.30;99.90;;;;;;4981478;28;20109;-69
2023/04/27 05:34:20;;;;;;;9.50;1.95;;;7.40;99.90;;;;;;4989493;28;20367;-69
2023/04/27 05:36:46;;;;;;;4.25;1.83;;;7.50;99.90;;;;;;4982640;28;20105;-69
2023/04/27 05:39:12;;;;;;;4.60;1.42;;;7.60;99.90;;;;;;4989530;28;20141;-69
2023/04/27 05:41:38;;;;;;;8.15;1.65;;;7.70;99.90;;;;;;4982543;28;20393;-69
2023/04/27 05:44:05;;;;;;;3.05;1.80;;;7.70;99.90;;;;;;4987912;28;20045;-69
2023/04/27 05:46:31;;;;;;;15.60;4.30;;;7.90;99.90;;;;;;4976399;28;20486;-69
2023/04/27 05:48:57;;;;;;;5.20;1.85;;;7.90;99.90;;;;;;4980770;28;20034;-69
2023/04/27 05:51:23;;;;;;;2.88;2.15;;;7.70;99.90;;;;;;4979389;28;20039;-69
2023/04/27 05:53:49;;;;;;;5.60;2.08;;;7.90;99.90;;;;;;4980793;28;20045;-69
2023/04/27 05:56:15;;;;;;;3.83;1.88;;;8.00;99.90;;;;;;4973236;28;20085;-69
2023/04/27 05:58:41;;;;;;;4.22;2.00;;;8.00;99.90;;;;;;4976349;28;20037;-68
2023/04/27 06:01:07;;;;;;;5.50;2.35;;;8.20;99.90;;;;;;4975143;28;20062;-67
2023/04/27 06:03:33;;;;;;;4.38;2.47;;;8.30;99.90;;;;;;4973419;28;20375;-66
2023/04/27 06:06:00;;;;;;;4.18;1.95;;;8.40;99.90;;;;;;4982929;28;20406;-66
2023/04/27 06:08:27;;;;;;;2.15;1.40;;;8.60;99.90;;;;;;4970332;28;20035;-67
2023/04/27 06:10:53;;;;;;;5.05;2.30;;;8.70;99.90;;;;;;4973703;28;20026;-66
2023/04/27 06:13:19;;;;;;;6.43;2.50;;;8.70;99.90;;;;;;4988397;28;20132;-67
2023/04/27 06:15:45;;;;;;;5.10;2.63;;;8.90;99.90;;;;;;4966955;28;20085;-67
2023/04/27 06:18:12;;;;;;;5.47;2.10;;;9.00;99.90;;;;;;4987061;28;20030;-66
2023/04/27 06:20:37;;;;;;;3.55;2.35;;;9.00;99.90;;;;;;4986609;28;20106;-67
2023/04/27 06:23:03;;;;;;;9.48;2.25;;;9.10;99.90;;;;;;4991067;28;20502;-66
2023/04/27 06:25:29;;;;;;;6.20;2.38;;;9.00;99.90;;;;;;4989080;28;20544;-66
2023/04/27 06:27:56;;;;;;;4.30;2.67;;;9.10;99.90;;;;;;4989796;28;20396;-68
2023/04/27 06:30:23;;;;;;;4.90;2.50;;;9.10;99.90;;;;;;4981115;28;20041;-66
2023/04/27 06:32:50;;;;;;;5.85;2.38;;;9.20;99.90;;;;;;4987302;28;20061;-66
2023/04/27 06:35:16;;;;;;;7.18;2.90;;;9.20;99.90;;;;;;4987964;28;20045;-66
2023/04/27 06:37:43;;;;;;;4.45;2.33;;;9.30;99.90;;;;;;4985527;28;20073;-66
2023/04/27 06:40:10;;;;;;;3.50;2.17;;;9.20;99.90;;;;;;4989058;28;20041;-66
2023/04/27 06:42:36;;;;;;;2.63;1.58;;;9.30;99.90;;;;;;4969760;28;20069;-66
2023/04/27 06:45:03;;;;;;;5.50;2.22;;;9.50;99.90;;;;;;4990794;28;20461;-66
2023/04/27 06:47:29;;;;;;;3.20;2.17;;;9.60;99.90;;;;;;4986267;28;20030;-66
2023/04/27 06:49:55;;;;;;;5.18;2.28;;;9.60;99.90;;;;;;4991352;28;20034;-67
2023/04/27 06:52:21;;;;;;;6.85;2.70;;;9.50;99.90;;;;;;4985644;28;20022;-67
2023/04/27 06:54:47;;;;;;;4.20;2.15;;;9.70;99.90;;;;;;4986331;28;20125;-67
2023/04/27 06:57:12;;;;;;;3.20;2.22;;;9.70;99.90;;;;;;4984096;28;20114;-67
2023/04/27 06:59:38;;;;;;;9.48;1.90;;;9.80;99.90;;;;;;4965559;28;20109;-68
2023/04/27 07:02:05;;;;;;;6.55;2.63;;;9.90;99.90;;;;;;4982287;28;20107;-67
2023/04/27 07:04:31;;;;;;;5.07;2.33;;;10.00;99.90;;;;;;4969451;28;20149;-67
2023/04/27 07:06:57;;;;;;;4.00;2.22;;;10.00;99.90;;;;;;4975944;28;20118;-67
2023/04/27 07:09:23;;;;;;;8.82;1.70;;;9.90;99.90;;;;;;4983476;28;20030;-67
2023/04/27 07:11:48;;;;;;;10.27;2.15;;;10.00;99.90;;;;;;4985383;28;20030;-67
2023/04/27 07:14:14;;;;;;;3.70;2.40;;;10.10;99.90;;;;;;4977249;28;20038;-67
2023/04/27 07:16:40;;;;;;;8.57;2.33;;;10.20;99.90;;;;;;4984942;28;20765;-67
2023/04/27 07:19:06;;;;;;;7.90;2.63;;;10.20;99.90;;;;;;4991602;28;20096;-68
2023/04/27 07:21:32;;;;;;;7.25;3.85;;;10.20;99.90;;;;;;4985066;28;20105;-67
2023/04/27 07:23:58;;;;;;;6.55;2.58;;;10.20;99.90;;;;;;4990940;28;20116;-68
2023/04/27 07:26:23;;;;;;;5.32;2.85;;;10.50;99.90;;;;;;4981869;28;20070;-66
2023/04/27 07:28:49;;;;;;;7.72;4.00;;;10.40;99.90;;;;;;4966257;28;20032;-66
2023/04/27 07:31:15;;;;;;;7.30;2.13;;;10.70;99.90;;;;;;4981150;28;20038;-66
2023/04/27 07:33:41;;;;;;;8.15;2.45;;;10.50;99.90;;;;;;4990935;28;20030;-68
2023/04/27 07:36:07;;;;;;;4.32;2.20;;;10.80;99.90;;;;;;4983345;28;20034;-66
2023/04/27 07:38:33;;;;;;;6.43;2.35;;;10.90;99.90;;;;;;4991416;28;20030;-66
2023/04/27 07:41:03;;;;;;;8.52;1.95;;;11.00;99.90;;;;;;4984723;28;20039;-66
2023/04/27 07:43:34;;;;;;;10.98;3.20;;;11.10;99.90;;;;;;4989764;28;20526;-67
2023/04/27 07:46:00;;;;;;;7.40;2.50;;;10.80;99.90;;;;;;4983146;28;20371;-67
2023/04/27 07:48:27;;;;;;;5.10;2.15;;;10.50;99.90;;;;;;4989072;28;20502;-68
2023/04/27 07:50:53;;;;;;;11.60;2.78;;;10.60;99.90;;;;;;4984100;28;20110;-67
2023/04/27 07:53:19;;;;;;;10.80;2.13;;;10.80;99.90;;;;;;4990387;28;20050;-68
2023/04/27 07:55:45;;;;;;;7.40;1.95;;;10.60;99.90;;;;;;4986120;28;20474;-67
2023/04/27 07:58:11;;;;;;;3.08;1.67;;;10.70;99.90;;;;;;4986918;28;20065;-67
2023/04/27 08:00:37;;;;;;;6.85;2.20;;;10.60;99.90;;;;;;4981081;28;20038;-67
2023/04/27 08:03:03;;;;;;;3.75;2.10;;;10.60;99.90;;;;;;4988296;28;20030;-67
2023/04/27 08:05:29;;;;;;;5.95;2.10;;;10.60;99.90;;;;;;4980870;28;20061;-68
2023/04/27 08:07:55;;;;;;;8.05;1.75;;;10.60;99.90;;;;;;4983843;28;20440;-66
2023/04/27 08:10:22;;;;;;;4.43;1.52;;;10.70;99.90;;;;;;4972566;28;20050;-66
2023/04/27 08:12:48;;;;;;;5.55;2.05;;;11.00;99.90;;;;;;4986082;28;20081;-67
2023/04/27 08:15:13;;;;;;;4.18;1.80;;;11.20;99.90;;;;;;4987411;28;20072;-67
2023/04/27 08:17:40;;;;;;;9.60;2.08;;;11.40;99.90;;;;;;4984924;28;20034;-66
2023/04/27 08:20:10;;;;;;;10.98;3.47;;;11.60;99.90;;;;;;4988162;28;20034;-67
2023/04/27 08:22:40;;;;;;;5.35;1.70;;;11.80;99.90;;;;;;4985348;28;20035;-67
2023/04/27 08:25:07;;;;;;;3.88;1.52;;;11.70;99.90;;;;;;4983760;28;20490;-68
2023/04/27 08:27:36;;;;;;;4.05;1.75;;;11.70;99.90;;;;;;4985341;28;20042;-66
2023/04/27 08:30:03;;;;;;;2.38;1.23;;;11.90;99.90;;;;;;4981523;28;20033;-67
2023/04/27 08:32:29;;;;;;;5.35;2.20;;;11.80;99.80;;;;;;4983446;28;20038;-67
2023/04/27 08:34:54;;;;;;;2.60;1.23;;;11.70;99.50;;;;;;4984286;28;20037;-67
2023/04/27 08:37:20;;;;;;;5.07;2.05;;;11.90;99.30;;;;;;4983500;28;20088;-68
2023/04/27 08:39:47;;;;;;;4.13;1.33;;;12.00;99.30;;;;;;4979870;28;20042;-67
2023/04/27 08:42:13;;;;;;;6.50;1.67;;;12.30;99.50;;;;;;4979652;28;20034;-68
2023/04/27 08:44:43;;;;;;;7.80;1.70;;;12.60;98.90;;;;;;4948433;28;20061;-68
2023/04/27 08:47:10;;;;;;;4.07;1.60;;;12.70;98.50;;;;;;4957223;28;20062;-67
2023/04/27 08:49:45;;;;;;;4.57;1.33;;;12.90;98.30;;;;;;4984121;28;20054;-68
2023/04/27 08:52:16;;;;;;;3.58;1.58;;;12.70;98.80;;;;;;4987300;28;20045;-67
2023/04/27 08:54:42;;;;;;;2.72;1.58;;;13.00;97.50;;;;;;4968595;28;20046;-66
2023/04/27 08:57:13;;;;;;;5.72;1.48;;;13.20;97.60;;;;;;4988701;28;20137;-67
2023/04/27 08:59:45;;;;;;;2.67;1.42;;;13.30;96.80;;;;;;4968339;28;20081;-66
2023/04/27 09:02:19;;;;;;;9.55;2.33;;;13.20;96.40;;;;;;4984443;28;20502;-66
2023/04/27 09:04:45;;;;;;;4.95;1.38;;;13.10;96.70;;;;;;4984515;28;20601;-68
2023/04/27 09:07:16;;;;;;;6.05;2.08;;;13.20;96.60;;;;;;4988056;28;20038;-67
2023/04/27 09:09:43;;;;;;;2.85;1.80;;;13.30;96.50;;;;;;4970302;28;20085;-67
2023/04/27 09:12:17;;;;;;;3.40;1.65;;;13.20;95.90;;;;;;4973330;28;20499;-68
2023/04/27 09:14:54;;;;;;;4.57;1.63;;;13.10;95.80;;;;;;4959878;28;20074;-67
2023/04/27 09:17:27;;;;;;;7.20;2.78;;;13.30;94.40;;;;;;4983990;28;20026;-66
2023/04/27 09:20:12;;;;;;;4.80;2.17;;;13.40;94.50;;;;;;4985617;28;20037;-65
2023/04/27 09:22:46;;;;;;;9.88;2.25;;;13.60;94.10;;;;;;4983736;28;20042;-66
2023/04/27 09:25:31;;;;;;;3.95;1.75;;;13.40;94.10;;;;;;4987997;28;20097;-65
2023/04/27 09:28:00;;;;;;;4.28;1.60;;;13.60;94.20;;;;;;4975972;28;20038;-67
2023/04/27 09:30:27;;;;;;;4.13;1.90;;;13.40;94.90;;;;;;4970419;28;20030;-64
2023/04/27 09:32:59;;;;;;;7.07;1.70;;;13.50;94.30;;;;;;4971294;28;20030;-66
2023/04/27 09:35:28;;;;;;;4.28;1.85;;;13.80;93.90;;;;;;4970170;28;20379;-66
2023/04/27 09:37:55;;;;;;;2.58;1.60;;;14.00;93.90;;;;;;4983404;28;20027;-66
2023/04/27 09:40:29;;;;;;;6.30;1.85;;;14.20;94.00;;;;;;4970087;28;20035;-66
2023/04/27 09:42:59;;;;;;;7.88;2.17;;;14.40;93.40;;;;;;4974497;28;20505;-66
2023/04/27 09:45:25;;;;;;;4.07;1.87;;;14.10;93.20;;;;;;4969816;28;20126;-66
2023/04/27 09:47:51;;;;;;;3.35;1.85;;;14.20;93.00;;;;;;5002497;23;20129;-68
2023/04/27 09:50:17;;;;;;;4.63;2.03;;;14.50;92.60;;;;;;5006455;28;20394;-67
2023/04/27 09:52:45;;;;;;;3.13;1.92;;;14.70;92.80;;;;;;4990006;28;20030;-67
2023/04/27 09:55:18;;;;;;;4.20;1.88;;;14.40;92.60;;;;;;4999300;28;20442;-67
2023/04/27 09:57:54;;;;;;;5.55;2.22;;;14.70;93.20;;;;;;5017655;28;20121;-67
2023/04/27 10:00:55;;;;;;;3.67;1.67;;;15.00;93.20;;;;;;4998309;28;20514;-68
2023/04/27 10:03:43;;;;;;;3.90;1.90;;;15.20;93.10;;;;;;4996028;28;20031;-68
2023/04/27 10:06:50;;;;;;;7.07;1.73;;;15.60;92.10;;;;;;4997955;28;20030;-68
2023/04/27 10:09:22;;;;;;;5.28;1.70;;;15.50;92.30;;;;;;4999176;28;20464;-68
2023/04/27 10:11:49;;;;;;;6.75;2.00;;;15.40;92.90;;;;;;5004853;28;20036;-66
2023/04/27 10:14:23;;;;;;;4.50;1.95;;;15.80;91.30;;;;;;4999583;28;20598;-66
2023/04/27 10:16:55;;;;;;;7.95;2.80;;;16.20;91.10;;;;;;5004398;28;20629;-67
2023/04/27 10:19:23;;;;;;;4.05;1.65;;;15.80;91.40;;;;;;5001285;28;20022;-67
2023/04/27 10:21:59;;;;;;;4.22;1.70;;;16.40;91.10;;;;;;5004365;28;20406;-67
2023/04/27 10:24:39;;;;;;;2.65;1.55;;;16.70;90.10;;;;;;4989076;28;20085;-68
2023/04/27 10:27:12;;;;;;;3.35;1.80;;;16.50;90.60;;;;;;4991249;28;20070;-69
2023/04/27 10:29:44;;;;;;;9.75;2.30;;;16.50;90.50;;;;;;5003313;28;20030;-67
2023/04/27 10:32:22;;;;;;;7.97;2.10;;;16.50;90.00;;;;;;4991652;28;20084;-67
2023/04/27 10:35:01;;;;;;;2.78;1.90;;;16.70;90.00;;;;;;5000574;28;20033;-66
2023/04/27 10:37:41;;;;;;;4.30;1.45;;;16.30;87.70;;;;;;4985703;28;20053;-66
2023/04/27 10:40:18;;;;;;;3.05;1.48;;;16.10;88.40;;;;;;5001701;28;20041;-66
2023/04/27 10:42:47;;;;;;;2.05;1.20;;;16.30;88.40;;;;;;5002842;28;20133;-67
2023/04/27 10:45:12;;;;;;;2.58;1.20;;;16.50;89.50;;;;;;5000360;28;20045;-67
2023/04/27 10:47:44;;;;;;;2.60;1.38;;;16.70;86.40;;;;;;5001257;28;20136;-67
2023/04/27 10:50:12;;;;;;;1.98;1.45;;;17.10;85.00;;;;;;5001645;28;20034;-68
2023/04/27 10:52:48;;;;;;;4.72;1.30;;;17.20;83.50;;;;;;5001433;28;20037;-68
2023/04/27 10:55:15;;;;;;;2.70;1.00;;;17.70;83.20;;;;;;5000801;28;20022;-75
2023/04/27 10:57:50;;;;;;;4.13;1.65;;;17.20;82.60;;;;;;5002524;28;20437;-78
2023/04/27 11:00:31;;;;;;;3.60;1.55;;;16.70;83.50;;;;;;5000472;28;20615;-78
2023/04/27 11:03:10;;;;;;;5.18;1.70;;;17.10;82.60;;;;;;4976317;28;20042;-75
2023/04/27 11:05:36;;;;;;;4.97;1.77;;;16.80;82.60;;;;;;5002863;28;20029;-80
2023/04/27 11:08:06;;;;;;;2.63;1.65;;;16.90;84.60;;;;;;5002813;28;20512;-80
2023/04/27 11:10:32;;;;;;;1.67;1.30;;;17.30;83.90;;;;;;4994083;28;20085;-81
2023/04/27 11:12:58;;;;;;;3.60;1.50;;;17.10;81.40;;;;;;5002415;28;20504;-81
2023/04/27 11:15:25;;;;;;;2.47;1.60;;;17.50;83.30;;;;;;5005676;28;20084;-80
2023/04/27 11:17:50;;;;;;;3.35;1.58;;;17.90;81.40;;;;;;4999618;28;20042;-80
2023/04/27 11:20:26;;;;;;;3.97;2.08;;;18.10;81.10;;;;;;5004539;28;20088;-81
2023/04/27 11:22:52;;;;;;;2.17;1.08;;;18.30;78.30;;;;;;5006952;28;20124;-80
2023/04/27 11:25:29;;;;;;;3.38;1.33;;;18.10;76.70;;;;;;5004339;28;20117;-79
2023/04/27 11:27:55;;;;;;;2.72;1.60;;;16.80;79.40;;;;;;5005654;28;20037;-80
2023/04/27 11:30:22;;;;;;;3.13;1.38;;;18.00;80.50;;;;;;5012812;28;20385;-80
2023/04/27 11:32:49;;;;;;;3.15;1.30;;;18.00;78.90;;;;;;5004798;28;20120;-80
2023/04/27 11:35:17;;;;;;;3.92;1.73;;;18.00;75.50;;;;;;5005483;28;20034;-81
2023/04/27 11:37:42;;;;;;;1.63;1.20;;;18.30;75.00;;;;;;5005326;28;20042;-81
2023/04/27 11:40:12;;;;;;;3.70;1.48;;;18.40;76.80;;;;;;5004237;28;20034;-81
2023/04/27 11:42:42;;;;;;;3.75;1.70;;;18.40;74.00;;;;;;4998892;28;20034;-80
2023/04/27 11:45:11;;;;;;;2.88;1.75;;;19.00;73.10;;;;;;5005176;28;20158;-83
2023/04/27 11:47:36;;;;;;;5.30;1.50;;;19.00;73.90;;;;;;5004904;28;20796;-82
2023/04/27 11:50:06;;;;;;;2.33;0.93;;;19.10;73.20;;;;;;4987804;28;20056;-81
2023/04/27 11:52:38;;;;;;;5.57;1.60;;;19.60;71.80;;;;;;5006239;28;20041;-79
2023/04/27 11:55:07;;;;;;;3.50;1.65;;;19.50;74.30;;;;;;4988496;28;20049;-80
2023/04/27 11:57:35;;;;;;;3.22;1.88;;;19.60;72.90;;;;;;5015045;28;20030;-81
2023/04/27 12:00:09;;;;;;;9.38;2.15;;;19.20;72.70;;;;;;5019968;28;20045;-80
2023/04/27 12:02:36;;;;;;;8.30;2.55;;;19.50;71.80;;;;;;4961592;28;20041;-81
2023/04/27 12:05:03;;;;;;;4.88;1.70;;;19.40;71.90;;;;;;4995977;28;20073;-81
2023/04/27 12:07:29;;;;;;;3.83;1.95;;;19.60;70.80;;;;;;4973543;28;20471;-79
2023/04/27 12:09:55;;;;;;;2.63;1.25;;;19.70;71.40;;;;;;4997100;28;20034;-81
2023/04/27 12:12:22;;;;;;;3.25;1.45;;;19.60;71.20;;;;;;4994370;28;20022;-82
2023/04/27 12:14:49;;;;;;;2.83;1.38;;;19.90;71.10;;;;;;4989723;28;20037;-80
2023/04/27 12:17:16;;;;;;;3.05;1.52;;;20.80;70.20;;;;;;4987227;28;20069;-81
2023/04/27 12:19:42;;;;;;;4.07;1.40;;;20.50;71.20;;;;;;5000792;28;20486;-71
2023/04/27 12:22:08;;;;;;;5.65;2.22;;;20.10;68.30;;;;;;4999045;28;20080;-72
2023/04/27 12:24:35;;;;;;;4.18;2.00;;;19.50;70.70;;;;;;4998772;28;20041;-73
2023/04/27 12:27:02;;;;;;;2.42;1.10;;;20.50;68.80;;;;;;4999935;28;20026;-72
2023/04/27 12:29:28;;;;;;;3.90;1.63;;;20.00;69.10;;;;;;5006350;28;20026;-72
2023/04/27 12:31:53;;;;;;;3.03;1.48;;;20.20;69.00;;;;;;4986885;28;20027;-73
2023/04/27 12:34:20;;;;;;;4.10;1.40;;;19.80;70.10;;;;;;5000725;28;20025;-73
2023/04/27 12:36:46;;;;;;;2.92;1.05;;;19.30;69.70;;;;;;5004654;28;20100;-72
2023/04/27 12:39:18;;;;;;;1.60;1.02;;;19.20;71.90;;;;;;5001702;28;20034;-72
2023/04/27 12:41:48;;;;;;;2.78;1.33;;;19.40;72.10;;;;;;5005501;28;20034;-72
2023/04/27 12:44:16;;;;;;;3.17;1.50;;;19.00;71.10;;;;;;4994074;28;20581;-72
2023/04/27 12:46:43;;;;;;;3.13;1.17;;;19.30;72.30;;;;;;5001975;28;20030;-72
2023/04/27 12:49:10;;;;;;;4.07;1.13;;;19.60;73.50;;;;;;5003250;28;20029;-71
2023/04/27 12:51:37;;;;;;;2.85;1.55;;;19.20;72.30;;;;;;4987865;28;20041;-72
2023/04/27 12:54:04;;;;;;;4.10;1.10;;;19.80;73.50;;;;;;4986448;28;20034;-72
2023/04/27 12:56:30;;;;;;;2.97;1.58;;;20.20;71.10;;;;;;5002480;28;20061;-71
2023/04/27 12:58:56;;;;;;;2.22;1.35;;;19.60;72.40;;;;;;5004444;28;20525;-72
2023/04/27 13:01:26;;;;;;;6.88;2.10;;;20.90;69.50;;;;;;5002989;28;20037;-72
2023/04/27 13:04:00;;;;;;;4.88;1.38;;;20.40;69.30;;;;;;5002045;28;20168;-72
2023/04/27 13:06:27;;;;;;;2.25;1.17;;;18.90;70.10;;;;;;4989229;28;20026;-73
2023/04/27 13:08:53;;;;;;;3.58;1.17;;;19.70;71.20;;;;;;4992268;28;20033;-73
2023/04/27 13:11:19;;;;;;;2.80;1.10;;;20.00;70.40;;;;;;4984615;28;20106;-73
2023/04/27 13:13:46;;;;;;;3.28;1.20;;;19.80;68.80;;;;;;4978241;28;20081;-73
2023/04/27 13:16:12;;;;;;;4.40;1.10;;;20.10;70.20;;;;;;4975903;28;20034;-73
2023/04/27 13:18:39;;;;;;;2.65;1.30;;;19.80;68.90;;;;;;4978302;28;20145;-72
2023/04/27 13:21:07;;;;;;;5.22;1.27;;;19.90;70.00;;;;;;4978626;28;20038;-71
2023/04/27 13:23:33;;;;;;;2.70;1.10;;;20.60;69.60;;;;;;4975828;28;20121;-72
2023/04/27 13:25:59;;;;;;;4.57;1.60;;;20.30;68.60;;;;;;4978862;28;20560;-72
2023/04/27 13:28:25;;;;;;;11.52;2.40;;;21.00;68.70;;;;;;4976507;28;20030;-72
2023/04/27 13:30:51;;;;;;;5.20;1.45;;;20.60;68.80;;;;;;4978807;28;20041;-71
2023/04/27 13:33:17;;;;;;;3.95;1.13;;;21.80;69.30;;;;;;4978457;28;20052;-72
2023/04/27 13:35:43;;;;;;;4.00;1.30;;;21.00;68.10;;;;;;4979453;28;20042;-72
2023/04/27 13:38:09;;;;;;;1.90;1.13;;;20.80;66.60;;;;;;4976872;28;20537;-72
2023/04/27 13:40:35;;;;;;;5.75;1.50;;;21.30;67.40;;;;;;4979074;28;20172;-73
2023/04/27 13:43:00;;;;;;;12.52;4.00;;;21.50;67.40;;;;;;4975143;28;20391;-72
2023/04/27 13:45:26;;;;;;;8.10;1.73;;;21.70;67.70;;;;;;4973775;28;20054;-72
2023/04/27 13:47:52;;;;;;;4.43;2.28;;;21.70;67.80;;;;;;4977548;28;20026;-73